Sao Bento do Sul, Brazil
Current Conditions -  °F | °C
As of 8:00 PM on Monday 20 Oct 2014 (Local Time) from SBJV Reporting Station
Broken Clouds Broken Clouds  
Wind Chill: 70°   Ceiling: 3000
Heat Index: 70°   Visibility: 6mi
Dew Point: 59°   Wind: 7mph
Humidity: 68%   Direction: 100°E
Pressure: 30.09"   Gusts: NA
Location:  26.25°S, 49.38°W
Report Text: SBJV 202200Z 10006KT 9999 BKN030 21/15 Q1019
Loading
Personal Weather Stations






























Interactive Weather Map
Tropical Storm Tracking
New forecast layout! Learn more

10-Day Weather Forecast

Advertisements
Track Severe Weather on mobile